createdAt,value
2023-05-07T00:00:39.933Z,3.28
2023-05-07T00:03:06.595Z,3.80
2023-05-07T00:05:33.352Z,2.97
2023-05-07T00:07:59.886Z,2.72
2023-05-07T00:10:26.490Z,3.72
2023-05-07T00:12:53.136Z,3.03
2023-05-07T00:15:19.886Z,4.32
2023-05-07T00:17:46.231Z,2.95
2023-05-07T00:20:12.992Z,2.60
2023-05-07T00:22:39.609Z,4.13
2023-05-07T00:25:06.706Z,2.65
2023-05-07T00:27:33.016Z,3.25
2023-05-07T00:29:59.310Z,2.55
2023-05-07T00:32:25.633Z,2.92
2023-05-07T00:34:52.226Z,2.78
2023-05-07T00:37:18.571Z,3.60
2023-05-07T00:39:44.885Z,2.70
2023-05-07T00:42:11.229Z,2.97
2023-05-07T00:44:37.593Z,3.75
2023-05-07T00:47:06.002Z,3.53
2023-05-07T00:49:38.550Z,2.90
2023-05-07T00:52:06.182Z,3.75
2023-05-07T00:54:33.332Z,3.00
2023-05-07T00:56:59.678Z,3.58
2023-05-07T00:59:26.215Z,3.00
2023-05-07T01:01:53.050Z,3.95
2023-05-07T01:04:19.482Z,3.47
2023-05-07T01:06:46.576Z,3.20
2023-05-07T01:09:13.801Z,3.05
2023-05-07T01:11:40.693Z,3.92
2023-05-07T01:14:07.982Z,2.60
2023-05-07T01:16:34.477Z,3.38
2023-05-07T01:19:01.654Z,3.13
2023-05-07T01:21:31.560Z,3.25
2023-05-07T01:23:58.143Z,3.42
2023-05-07T01:26:24.768Z,3.13
2023-05-07T01:28:51.599Z,5.43
2023-05-07T01:31:18.175Z,2.50
2023-05-07T01:33:44.960Z,3.00
2023-05-07T01:36:12.502Z,3.15
2023-05-07T01:38:39.389Z,3.13
2023-05-07T01:41:05.932Z,3.08
2023-05-07T01:43:32.567Z,2.70
2023-05-07T01:45:59.972Z,2.50
2023-05-07T01:48:26.672Z,3.13
2023-05-07T01:50:53.446Z,3.45
2023-05-07T01:53:19.835Z,3.47
2023-05-07T01:55:46.319Z,3.08
2023-05-07T01:58:12.760Z,3.38
2023-05-07T02:00:39.056Z,3.03
2023-05-07T02:03:05.659Z,3.47
2023-05-07T02:05:32.069Z,3.85
2023-05-07T02:07:58.373Z,3.47
2023-05-07T02:10:24.932Z,4.15
2023-05-07T02:12:51.380Z,4.10
2023-05-07T02:15:17.680Z,3.40
2023-05-07T02:18:01.082Z,3.05
2023-05-07T02:20:27.884Z,4.00
2023-05-07T02:22:54.536Z,2.75
2023-05-07T02:25:21.106Z,4.20
2023-05-07T02:27:50.050Z,3.67
2023-05-07T02:30:16.706Z,4.88
2023-05-07T02:32:43.079Z,3.33
2023-05-07T02:35:09.503Z,3.20
2023-05-07T02:37:36.275Z,4.07
2023-05-07T02:40:04.642Z,3.88
2023-05-07T02:42:31.121Z,4.22
2023-05-07T02:44:57.438Z,3.83
2023-05-07T02:47:23.871Z,4.40
2023-05-07T02:49:50.453Z,3.33
2023-05-07T02:52:16.760Z,3.67
2023-05-07T02:54:43.109Z,3.80
2023-05-07T02:57:09.400Z,2.67
2023-05-07T02:59:36.032Z,3.05
2023-05-07T03:02:02.667Z,3.47
2023-05-07T03:04:29.255Z,3.67
2023-05-07T03:06:55.853Z,3.88
2023-05-07T03:09:22.235Z,3.50
2023-05-07T03:11:48.600Z,3.10
2023-05-07T03:14:14.940Z,3.28
2023-05-07T03:16:41.283Z,4.80
2023-05-07T03:19:07.728Z,3.72
2023-05-07T03:21:35.470Z,3.10
2023-05-07T03:24:01.893Z,3.47
2023-05-07T03:26:28.662Z,3.05
2023-05-07T03:28:56.425Z,3.63
2023-05-07T03:31:22.767Z,3.33
2023-05-07T03:33:52.928Z,3.45
2023-05-07T03:36:19.555Z,3.08
2023-05-07T03:38:45.852Z,3.60
2023-05-07T03:41:12.491Z,3.17
2023-05-07T03:43:38.844Z,3.65
2023-05-07T03:46:05.239Z,3.28
2023-05-07T03:48:31.619Z,3.90
2023-05-07T03:50:58.678Z,3.00
2023-05-07T03:53:25.051Z,3.22
2023-05-07T03:55:51.398Z,3.78
2023-05-07T03:58:17.812Z,4.15
2023-05-07T04:00:44.229Z,3.30
2023-05-07T04:03:10.629Z,3.22
2023-05-07T04:05:37.060Z,3.72
2023-05-07T04:08:03.493Z,3.35
2023-05-07T04:10:30.633Z,3.65
2023-05-07T04:12:58.095Z,4.13
2023-05-07T04:15:24.714Z,3.83
2023-05-07T04:17:51.151Z,3.95
2023-05-07T04:20:17.869Z,2.80
2023-05-07T04:22:44.417Z,4.68
2023-05-07T04:25:10.952Z,3.70
2023-05-07T04:27:37.314Z,4.30
2023-05-07T04:30:03.928Z,4.57
2023-05-07T04:32:31.438Z,5.93
2023-05-07T04:34:57.951Z,3.97
2023-05-07T04:37:24.512Z,7.70
2023-05-07T04:39:50.834Z,4.35
2023-05-07T04:42:18.003Z,3.70
2023-05-07T04:44:47.870Z,3.05
2023-05-07T04:47:18.543Z,3.95
2023-05-07T04:49:48.584Z,4.43
2023-05-07T04:52:27.396Z,3.28
2023-05-07T04:55:05.468Z,3.47
2023-05-07T04:57:38.638Z,3.10
2023-05-07T05:00:16.229Z,4.82
2023-05-07T05:02:46.114Z,4.15
2023-05-07T05:05:12.939Z,2.92
2023-05-07T05:07:39.258Z,2.38
2023-05-07T05:10:06.987Z,3.83
2023-05-07T05:12:33.376Z,3.03
2023-05-07T05:14:59.691Z,3.80
2023-05-07T05:17:26.094Z,3.53
2023-05-07T05:19:52.469Z,4.10
2023-05-07T05:22:18.858Z,3.08
2023-05-07T05:24:45.166Z,2.97
2023-05-07T05:27:11.559Z,3.53
2023-05-07T05:29:37.930Z,2.97
2023-05-07T05:32:04.537Z,4.88
2023-05-07T05:34:31.138Z,2.60
2023-05-07T05:36:57.964Z,3.38
2023-05-07T05:39:24.424Z,4.82
2023-05-07T05:41:50.913Z,2.33
2023-05-07T05:44:17.255Z,4.45
2023-05-07T05:46:43.872Z,4.22
2023-05-07T05:49:10.363Z,3.00
2023-05-07T05:51:36.661Z,2.85
2023-05-07T05:54:03.128Z,3.63
2023-05-07T05:56:29.520Z,2.95
2023-05-07T05:58:55.805Z,2.58
2023-05-07T06:01:22.226Z,3.05
2023-05-07T06:03:48.732Z,2.80
2023-05-07T06:06:15.631Z,4.35
2023-05-07T06:08:42.098Z,2.95
2023-05-07T06:11:08.458Z,3.53
2023-05-07T06:13:34.813Z,4.53
2023-05-07T06:16:01.087Z,2.90
2023-05-07T06:18:27.578Z,4.50
2023-05-07T06:20:54.061Z,4.35
2023-05-07T06:23:20.606Z,4.72
2023-05-07T06:25:49.528Z,6.22
2023-05-07T06:28:15.808Z,10.52
2023-05-07T06:30:42.119Z,8.23
2023-05-07T06:33:08.847Z,7.00
2023-05-07T06:35:35.447Z,5.80
2023-05-07T06:38:01.910Z,11.48
2023-05-07T06:40:28.338Z,8.75
2023-05-07T06:42:54.635Z,6.40
2023-05-07T06:45:21.226Z,9.23
2023-05-07T06:47:47.526Z,14.10
2023-05-07T06:50:13.854Z,20.08
2023-05-07T06:52:40.323Z,7.30
2023-05-07T06:55:07.084Z,8.70
2023-05-07T06:57:33.369Z,10.52
2023-05-07T06:59:59.735Z,11.00
2023-05-07T07:02:26.071Z,7.28
2023-05-07T07:04:52.465Z,7.68
2023-05-07T07:07:18.765Z,6.68
2023-05-07T07:09:45.203Z,12.60
2023-05-07T07:12:11.706Z,6.35
2023-05-07T07:14:37.956Z,7.18
2023-05-07T07:17:06.056Z,7.88
2023-05-07T07:19:32.387Z,6.28
2023-05-07T07:21:58.806Z,4.72
2023-05-07T07:24:25.202Z,7.30
2023-05-07T07:26:51.631Z,6.90
2023-05-07T07:29:19.720Z,6.95
2023-05-07T07:31:46.121Z,4.47
2023-05-07T07:34:12.490Z,4.30
2023-05-07T07:36:46.326Z,4.85
2023-05-07T07:39:13.821Z,6.70
2023-05-07T07:41:40.239Z,5.88
2023-05-07T07:44:08.656Z,5.05
2023-05-07T07:46:35.694Z,6.55
2023-05-07T07:49:02.079Z,5.22
2023-05-07T07:51:28.634Z,5.85
2023-05-07T07:53:54.923Z,4.45
2023-05-07T07:56:21.727Z,8.02
2023-05-07T07:58:48.133Z,7.47
2023-05-07T08:01:14.516Z,4.93
2023-05-07T08:03:41.189Z,7.43
2023-05-07T08:06:07.659Z,6.55
2023-05-07T08:08:34.036Z,6.25
2023-05-07T08:11:00.422Z,6.00
2023-05-07T08:13:26.956Z,9.15
2023-05-07T08:15:53.740Z,4.70
2023-05-07T08:18:20.454Z,7.20
2023-05-07T08:20:47.542Z,8.18
2023-05-07T08:23:13.866Z,7.55
2023-05-07T08:25:42.358Z,8.30
2023-05-07T08:28:10.129Z,11.77
2023-05-07T08:30:36.653Z,8.07
2023-05-07T08:33:03.076Z,7.22
2023-05-07T08:35:29.455Z,7.82
2023-05-07T08:37:55.880Z,10.13
2023-05-07T08:40:26.558Z,8.07
2023-05-07T08:42:53.877Z,10.52
2023-05-07T08:45:20.639Z,10.70
2023-05-07T08:47:56.486Z,10.05
2023-05-07T08:52:49.293Z,7.30
2023-05-07T08:55:16.173Z,8.80
2023-05-07T08:57:45.865Z,8.35
2023-05-07T09:00:12.715Z,9.65
2023-05-07T09:02:39.261Z,6.15
2023-05-07T09:05:05.851Z,8.23
2023-05-07T09:07:32.250Z,6.80
2023-05-07T09:09:58.911Z,7.25
2023-05-07T09:12:25.258Z,10.35
2023-05-07T09:14:51.664Z,10.68
2023-05-07T09:17:18.280Z,7.70
2023-05-07T09:19:45.674Z,8.63
2023-05-07T09:22:12.045Z,9.75
2023-05-07T09:24:39.057Z,8.35
2023-05-07T09:27:05.938Z,6.18
2023-05-07T09:29:38.230Z,5.90
2023-05-07T09:32:08.717Z,7.20
2023-05-07T09:34:35.831Z,7.25
2023-05-07T09:37:02.993Z,8.77
2023-05-07T09:39:45.958Z,7.97
2023-05-07T09:42:13.161Z,7.03
2023-05-07T09:44:39.778Z,8.30
2023-05-07T09:47:06.834Z,7.68
2023-05-07T09:49:35.098Z,7.82
2023-05-07T09:52:02.195Z,11.27
2023-05-07T09:54:32.173Z,6.65
2023-05-07T09:56:59.542Z,8.95
2023-05-07T09:59:29.763Z,10.88
2023-05-07T10:01:58.309Z,6.70
2023-05-07T10:04:25.646Z,10.02
2023-05-07T10:06:52.043Z,6.68
2023-05-07T10:09:19.139Z,7.85
2023-05-07T10:11:45.848Z,5.82
2023-05-07T10:14:12.386Z,7.13
2023-05-07T10:16:38.885Z,7.15
2023-05-07T10:19:06.092Z,7.38
2023-05-07T10:21:34.260Z,5.95
2023-05-07T10:24:06.908Z,5.70
2023-05-07T10:26:33.890Z,6.28
2023-05-07T10:29:02.937Z,6.70
2023-05-07T10:31:48.072Z,6.53
2023-05-07T10:34:17.781Z,4.70
2023-05-07T10:36:44.374Z,5.95
2023-05-07T10:39:11.303Z,4.45
2023-05-07T10:41:37.968Z,5.65
2023-05-07T10:44:04.450Z,5.57
2023-05-07T10:46:31.771Z,6.10
2023-05-07T10:49:01.474Z,5.65
2023-05-07T10:51:28.437Z,5.50
2023-05-07T10:54:13.684Z,6.47
2023-05-07T10:56:40.813Z,4.87
2023-05-07T10:59:24.589Z,4.65
2023-05-07T11:01:51.018Z,5.35
2023-05-07T11:04:18.731Z,4.95
2023-05-07T11:07:05.238Z,3.70
2023-05-07T11:09:50.371Z,3.88
2023-05-07T11:12:16.725Z,3.65
2023-05-07T11:14:50.681Z,4.70
2023-05-07T11:17:22.155Z,3.05
2023-05-07T11:19:52.469Z,4.85
2023-05-07T11:22:40.648Z,4.55
2023-05-07T11:25:07.502Z,3.97
2023-05-07T11:27:34.055Z,4.07
2023-05-07T11:30:02.028Z,4.72
2023-05-07T11:32:30.829Z,4.85
2023-05-07T11:34:58.781Z,6.40
2023-05-07T11:37:26.201Z,4.57
2023-05-07T11:40:02.303Z,5.22
2023-05-07T11:42:37.594Z,4.20
2023-05-07T11:45:04.597Z,4.63
2023-05-07T11:47:32.764Z,5.15
2023-05-07T11:50:06.852Z,8.00
2023-05-07T11:52:37.743Z,4.43
2023-05-07T11:55:05.990Z,5.80
2023-05-07T12:00:37.640Z,4.00
2023-05-07T12:03:07.171Z,4.85
2023-05-07T12:05:48.929Z,5.68
2023-05-07T12:08:20.542Z,4.38
2023-05-07T12:10:55.694Z,4.75
2023-05-07T12:13:23.185Z,3.57
2023-05-07T12:15:53.316Z,3.85
2023-05-07T12:18:19.818Z,4.40
2023-05-07T12:20:46.486Z,3.75
2023-05-07T12:23:13.395Z,4.40
2023-05-07T12:25:40.297Z,4.22
2023-05-07T12:28:07.113Z,4.80
2023-05-07T12:30:37.705Z,4.28
2023-05-07T12:33:04.165Z,3.50
2023-05-07T12:35:30.856Z,3.65
2023-05-07T12:38:04.958Z,3.75
2023-05-07T12:40:38.911Z,4.32
2023-05-07T12:43:05.502Z,3.25
2023-05-07T12:45:31.842Z,5.18
2023-05-07T12:48:01.959Z,4.88
2023-05-07T12:50:31.883Z,5.75
2023-05-07T12:52:58.387Z,3.47
2023-05-07T12:55:24.684Z,3.80
2023-05-07T12:57:54.177Z,3.50
2023-05-07T13:00:33.613Z,3.97
2023-05-07T13:03:02.507Z,6.75
2023-05-07T13:05:28.873Z,3.15
2023-05-07T13:07:55.704Z,5.97
2023-05-07T13:10:22.776Z,3.05
2023-05-07T13:12:49.062Z,4.85
2023-05-07T13:15:15.408Z,4.40
2023-05-07T13:17:41.753Z,5.65
2023-05-07T13:20:09.258Z,6.05
2023-05-07T13:22:35.779Z,6.95
2023-05-07T13:25:02.130Z,4.03
2023-05-07T13:27:28.395Z,6.40
2023-05-07T13:29:54.690Z,4.07
2023-05-07T13:32:21.228Z,4.35
2023-05-07T13:34:47.497Z,5.18
2023-05-07T13:37:13.809Z,3.40
2023-05-07T13:39:40.116Z,4.95
2023-05-07T13:42:06.404Z,5.55
2023-05-07T13:44:32.647Z,5.30
2023-05-07T13:46:58.944Z,5.13
2023-05-07T13:49:25.301Z,4.13
2023-05-07T13:51:51.766Z,5.50
2023-05-07T13:54:18.079Z,5.40
2023-05-07T13:56:44.342Z,4.20
2023-05-07T13:59:10.815Z,6.28
2023-05-07T14:01:37.149Z,4.45
2023-05-07T14:04:03.608Z,5.15
2023-05-07T14:06:29.952Z,6.30
2023-05-07T14:09:01.781Z,4.75
2023-05-07T14:11:28.531Z,3.78
2023-05-07T14:17:06.185Z,4.80
2023-05-07T14:19:32.723Z,7.35
2023-05-07T14:21:59.511Z,4.70
2023-05-07T14:24:37.570Z,5.95
2023-05-07T14:27:07.369Z,4.20
2023-05-07T14:29:33.945Z,5.43
2023-05-07T14:32:00.314Z,5.32
2023-05-07T14:34:26.631Z,4.53
2023-05-07T14:36:53.309Z,3.75
2023-05-07T14:39:31.187Z,4.93
2023-05-07T14:41:58.182Z,5.15
2023-05-07T14:44:24.569Z,4.30
2023-05-07T14:46:56.617Z,4.72
2023-05-07T14:49:30.628Z,4.05
2023-05-07T14:52:14.159Z,4.45
2023-05-07T14:54:45.081Z,5.40
2023-05-07T14:57:14.295Z,4.50
2023-05-07T15:00:27.692Z,3.40
2023-05-07T15:02:54.576Z,4.75
2023-05-07T15:05:21.103Z,5.43
2023-05-07T15:07:47.584Z,3.60
2023-05-07T15:10:16.953Z,4.00
2023-05-07T15:12:43.349Z,6.43
2023-05-07T15:15:10.204Z,4.88
2023-05-07T15:17:36.782Z,3.45
2023-05-07T15:20:05.698Z,3.25
2023-05-07T15:22:32.119Z,3.95
2023-05-07T15:25:05.916Z,3.80
2023-05-07T15:27:32.292Z,6.50
2023-05-07T15:30:02.033Z,3.85
2023-05-07T15:32:28.594Z,4.40
2023-05-07T15:34:54.973Z,4.72
2023-05-07T15:37:21.382Z,3.80
2023-05-07T15:39:47.804Z,5.78
2023-05-07T15:42:14.070Z,5.18
2023-05-07T15:44:40.552Z,3.95
2023-05-07T15:47:06.966Z,5.18
2023-05-07T15:49:33.388Z,5.35
2023-05-07T15:51:59.796Z,6.13
2023-05-07T15:54:26.329Z,5.20
2023-05-07T15:56:52.720Z,5.30
2023-05-07T15:59:19.223Z,4.85
2023-05-07T16:01:45.737Z,5.43
2023-05-07T16:04:12.454Z,6.63
2023-05-07T16:06:38.847Z,4.03
2023-05-07T16:09:05.414Z,5.43
2023-05-07T16:11:34.286Z,5.13
2023-05-07T16:14:01.423Z,3.75
2023-05-07T16:16:30.201Z,5.50
2023-05-07T16:18:57.270Z,6.00
2023-05-07T16:21:24.216Z,4.10
2023-05-07T16:23:51.998Z,4.63
2023-05-07T16:26:18.398Z,5.25
2023-05-07T16:28:44.837Z,4.75
2023-05-07T16:31:11.149Z,4.82
2023-05-07T16:33:37.596Z,4.65
2023-05-07T16:36:04.170Z,4.63
2023-05-07T16:38:33.131Z,3.35
2023-05-07T16:40:59.823Z,6.00
2023-05-07T16:43:26.132Z,4.22
2023-05-07T16:45:53.184Z,4.30
2023-05-07T16:48:21.103Z,4.75
2023-05-07T16:50:47.836Z,5.13
2023-05-07T16:53:14.450Z,4.88
2023-05-07T16:55:41.598Z,5.60
2023-05-07T16:58:09.119Z,4.20
2023-05-07T17:00:49.134Z,4.18
2023-05-07T17:03:17.740Z,5.60
2023-05-07T17:05:44.352Z,4.55
2023-05-07T17:08:10.729Z,4.97
2023-05-07T17:10:37.257Z,4.88
2023-05-07T17:13:03.633Z,4.20
2023-05-07T17:15:30.122Z,4.85
2023-05-07T17:17:56.591Z,6.07
2023-05-07T17:20:23.097Z,7.07
2023-05-07T17:22:49.611Z,4.80
2023-05-07T17:25:16.320Z,4.60
2023-05-07T17:27:42.692Z,5.53
2023-05-07T17:30:09.704Z,4.13
2023-05-07T17:32:39.633Z,4.55
2023-05-07T17:35:06.825Z,4.10
2023-05-07T17:37:33.295Z,7.15
2023-05-07T17:40:00.723Z,7.05
2023-05-07T17:42:27.118Z,7.90
2023-05-07T17:44:53.689Z,8.20
2023-05-07T17:47:20.244Z,6.65
2023-05-07T17:49:46.957Z,8.18
2023-05-07T17:52:13.431Z,6.95
2023-05-07T17:54:39.785Z,8.35
2023-05-07T17:57:07.446Z,8.55
2023-05-07T17:59:34.006Z,7.22
2023-05-07T18:02:00.716Z,6.57
2023-05-07T18:04:28.281Z,10.35
2023-05-07T18:06:54.795Z,8.27
2023-05-07T18:09:21.367Z,6.80
2023-05-07T18:11:47.700Z,9.82
2023-05-07T18:14:14.065Z,7.68
2023-05-07T18:16:40.605Z,9.43
2023-05-07T18:19:07.073Z,9.30
2023-05-07T18:21:33.580Z,7.70
2023-05-07T18:23:59.904Z,8.32
2023-05-07T18:26:26.291Z,7.32
2023-05-07T18:28:52.683Z,6.78
2023-05-07T18:31:20.548Z,8.70
2023-05-07T18:33:46.891Z,6.32
2023-05-07T18:36:13.185Z,8.65
2023-05-07T18:38:39.515Z,9.15
2023-05-07T18:41:06.058Z,8.65
2023-05-07T18:43:33.652Z,8.20
2023-05-07T18:46:00.363Z,8.25
2023-05-07T18:48:26.698Z,7.03
2023-05-07T18:50:53.107Z,8.05
2023-05-07T18:53:19.417Z,8.63
2023-05-07T18:55:49.349Z,5.90
2023-05-07T18:58:16.583Z,8.32
2023-05-07T19:00:42.865Z,5.88
2023-05-07T19:03:09.249Z,7.00
2023-05-07T19:05:35.757Z,6.90
2023-05-07T19:08:02.083Z,5.90
2023-05-07T19:10:28.412Z,7.30
2023-05-07T19:12:55.618Z,7.43
2023-05-07T19:15:23.294Z,7.03
2023-05-07T19:17:50.004Z,7.38
2023-05-07T19:20:16.520Z,6.57
2023-05-07T19:22:42.791Z,5.45
2023-05-07T19:25:09.930Z,6.43
2023-05-07T19:27:36.517Z,5.55
2023-05-07T19:30:03.542Z,6.28
2023-05-07T19:32:29.923Z,4.97
2023-05-07T19:34:56.312Z,5.55
2023-05-07T19:37:25.428Z,7.57
2023-05-07T19:39:52.545Z,6.32
2023-05-07T19:42:18.931Z,7.13
2023-05-07T19:44:45.286Z,6.15
2023-05-07T19:47:11.844Z,6.85
2023-05-07T19:49:38.197Z,8.07
2023-05-07T19:52:04.583Z,6.07
2023-05-07T19:54:30.901Z,5.88
2023-05-07T19:56:57.238Z,7.70
2023-05-07T19:59:23.850Z,5.30
2023-05-07T20:01:50.186Z,5.22
2023-05-07T20:04:20.160Z,5.95
2023-05-07T20:06:46.532Z,6.40
2023-05-07T20:09:13.603Z,4.95
2023-05-07T20:11:40.292Z,4.97
2023-05-07T20:14:06.688Z,5.55
2023-05-07T20:16:33.432Z,4.82
2023-05-07T20:18:59.918Z,6.60
2023-05-07T20:21:26.747Z,5.78
2023-05-07T20:23:53.283Z,6.60
2023-05-07T20:26:19.713Z,4.70
2023-05-07T20:28:46.042Z,12.93
2023-05-07T20:31:12.488Z,6.43
2023-05-07T20:33:40.807Z,6.22
2023-05-07T20:36:07.802Z,8.60
2023-05-07T20:38:34.256Z,5.78
2023-05-07T20:41:11.748Z,4.65
2023-05-07T20:43:38.370Z,5.20
2023-05-07T20:46:05.518Z,7.28
2023-05-07T20:48:31.931Z,4.75
2023-05-07T20:50:58.553Z,7.75
2023-05-07T20:53:25.249Z,7.00
2023-05-07T20:55:51.925Z,6.63
2023-05-07T20:58:18.305Z,6.25
2023-05-07T21:00:44.755Z,6.80
2023-05-07T21:03:11.150Z,6.00
2023-05-07T21:05:37.484Z,7.35
2023-05-07T21:08:04.911Z,4.72
2023-05-07T21:10:31.252Z,4.85
2023-05-07T21:12:57.595Z,5.55
2023-05-07T21:15:23.956Z,5.13
2023-05-07T21:17:50.335Z,4.82
2023-05-07T21:20:16.795Z,6.30
2023-05-07T21:22:43.106Z,7.07
2023-05-07T21:25:10.899Z,5.68
2023-05-07T21:27:38.286Z,6.10
2023-05-07T21:30:04.980Z,9.30
2023-05-07T21:32:31.434Z,5.53
2023-05-07T21:34:58.815Z,5.25
2023-05-07T21:37:25.361Z,5.65
2023-05-07T21:39:51.735Z,7.82
2023-05-07T21:42:18.159Z,6.22
2023-05-07T21:44:44.514Z,4.18
2023-05-07T21:47:11.101Z,6.22
2023-05-07T21:49:37.558Z,4.40
2023-05-07T21:52:03.958Z,4.55
2023-05-07T21:54:30.194Z,5.90
2023-05-07T21:56:56.464Z,8.65
2023-05-07T21:59:22.820Z,4.43
2023-05-07T22:01:49.233Z,7.50
2023-05-07T22:04:15.588Z,4.80
2023-05-07T22:06:41.879Z,4.80
2023-05-07T22:09:08.311Z,5.13
2023-05-07T22:11:34.686Z,3.83
2023-05-07T22:14:01.015Z,5.40
2023-05-07T22:16:27.463Z,6.05
2023-05-07T22:18:53.884Z,5.47
2023-05-07T22:21:20.593Z,4.22
2023-05-07T22:23:46.870Z,5.18
2023-05-07T22:26:13.857Z,3.95
2023-05-07T22:28:40.568Z,5.03
2023-05-07T22:31:07.417Z,5.85
2023-05-07T22:33:33.756Z,5.55
2023-05-07T22:36:00.175Z,5.43
2023-05-07T22:38:26.476Z,5.00
2023-05-07T22:40:52.816Z,5.20
2023-05-07T22:43:19.227Z,5.43
2023-05-07T22:45:45.693Z,5.40
2023-05-07T22:48:11.995Z,4.00
2023-05-07T22:50:38.735Z,3.60
2023-05-07T22:53:05.505Z,5.93
2023-05-07T22:55:32.507Z,3.58
2023-05-07T22:57:58.805Z,3.78
2023-05-07T23:00:25.146Z,3.92
2023-05-07T23:02:51.518Z,5.78
2023-05-07T23:05:17.947Z,5.00
2023-05-07T23:07:44.214Z,5.05
2023-05-07T23:10:10.594Z,4.28
2023-05-07T23:12:37.042Z,4.28
2023-05-07T23:15:03.845Z,4.07
2023-05-07T23:17:30.142Z,3.78
2023-05-07T23:19:57.016Z,4.60
2023-05-07T23:22:23.357Z,5.15
2023-05-07T23:24:49.622Z,3.58
2023-05-07T23:27:15.894Z,5.82
2023-05-07T23:29:42.240Z,4.13
2023-05-07T23:32:08.544Z,4.65
2023-05-07T23:34:34.789Z,4.13
2023-05-07T23:37:01.153Z,5.25
2023-05-07T23:39:27.480Z,5.28
2023-05-07T23:41:53.809Z,3.28
2023-05-07T23:44:20.069Z,5.18
2023-05-07T23:46:46.424Z,4.03
2023-05-07T23:49:12.761Z,5.05
2023-05-07T23:51:39.122Z,3.88
2023-05-07T23:54:06.573Z,4.40
2023-05-07T23:56:33.362Z,6.13
2023-05-07T23:58:59.704Z,3.47
